Jask, Iran
Current Conditions -  °F | °C
As of 3:00 AM on Tuesday 21 Oct 2014 (Local Time) from OIZJ Reporting Station
Clear Clear  
Wind Chill: 27°   Ceiling: Unl
Heat Index: 31°   Visibility: 4mi
Dew Point: 25°   Wind: 9mph
Humidity: 89%   Direction: 80°E
Pressure: 29.88"   Gusts: NA
Location:  25.65°N, 57.78°E
Report Text: OIZJ 210000Z 08008KT 7000 SKC 27/25 Q1012
Loading
Personal Weather Stations






























Interactive Weather Map
Tropical Storm Tracking
New forecast layout! Learn more

10-Day Weather Forecast

Advertisements
Track Severe Weather on mobile